Terminal Aerodrome Forecast
Issued by NWS

Home | Current Version | Previous Version | Text Only | Print | Product List | Glossary On
Versions: 1 2 3 4 5 6 7 8 9 10 11 12 13 14 15 16 17 18
000
FTUS46 KPQR 271724
TAFONP
TAF
KONP 271724Z 2718/2818 34010G15KT P6SM SCT025
     FM271900 33017G25KT P6SM SCT030
     FM272100 35020G28KT P6SM SKC
     FM280400 35010KT 6SM BR SCT012
     FM280700 36004KT 4SM BR BKN008 OVC012
     FM281700 34010KT P6SM SCT015=

USA.gov is the U.S. government's official web portal to all federal, state and local government web resources and services.